createdAt,value
2016-04-23T00:02:01.050Z,5
2016-04-23T00:05:08.199Z,5
2016-04-23T00:08:09.207Z,5
2016-04-23T00:11:21.324Z,5
2016-04-23T00:14:33.410Z,5
2016-04-23T00:17:45.575Z,5
2016-04-23T00:21:03.804Z,5
2016-04-23T00:24:04.844Z,5
2016-04-23T00:27:16.758Z,5
2016-04-23T00:30:28.891Z,5
2016-04-23T00:33:40.946Z,5
2016-04-23T00:36:52.938Z,5
2016-04-23T00:40:08.996Z,5
2016-04-23T00:43:10.113Z,5
2016-04-23T00:46:22.231Z,5
2016-04-23T00:49:34.208Z,5
2016-04-23T00:52:46.279Z,5
2016-04-23T00:56:04.320Z,5
2016-04-23T00:59:05.328Z,5
2016-04-23T01:02:17.430Z,5
2016-04-23T01:05:29.611Z,5
2016-04-23T01:08:41.806Z,5
2016-04-23T01:11:59.907Z,5
2016-04-23T01:15:06.981Z,5
2016-04-23T01:18:08.082Z,5
2016-04-23T01:21:20.232Z,5
2016-04-23T01:24:32.365Z,5
2016-04-23T01:27:44.044Z,5
2016-04-23T01:31:01.836Z,5
2016-04-23T01:34:03.016Z,5
2016-04-23T01:37:15.040Z,5
2016-04-23T01:40:27.095Z,5
2016-04-23T01:43:39.321Z,5
2016-04-23T01:46:51.518Z,5
2016-04-23T01:50:03.200Z,5
2016-04-23T01:53:15.240Z,5
2016-04-23T01:56:24.092Z,5
2016-04-23T01:59:36.239Z,5
2016-04-23T02:02:44.904Z,5
2016-04-23T02:06:03.008Z,5
2016-04-23T02:09:04.095Z,5
2016-04-23T02:12:14.103Z,5
2016-04-23T02:15:26.126Z,5
2016-04-23T02:18:38.353Z,5
2016-04-23T02:21:49.674Z,5
2016-04-23T02:25:05.991Z,5
2016-04-23T02:28:06.984Z,5
2016-04-23T02:31:19.133Z,5
2016-04-23T02:34:31.359Z,5
2016-04-23T02:37:43.430Z,5
2016-04-23T02:41:01.282Z,5
2016-04-23T02:44:08.230Z,5
2016-04-23T02:47:09.035Z,5
2016-04-23T02:50:20.917Z,5
2016-04-23T02:53:32.722Z,5
2016-04-23T02:56:44.669Z,5
2016-04-23T03:00:02.538Z,5
2016-04-23T03:03:03.594Z,5
2016-04-23T03:06:15.430Z,5
2016-04-23T03:09:27.063Z,6
2016-04-23T03:12:35.742Z,6
2016-04-23T03:15:47.750Z,6
2016-04-23T03:19:05.387Z,7
2016-04-23T03:22:06.411Z,8
2016-04-23T03:25:18.214Z,10
2016-04-23T03:28:30.270Z,12
2016-04-23T03:31:42.294Z,15
2016-04-23T03:35:00.286Z,22
2016-04-23T03:38:07.125Z,30
2016-04-23T03:41:08.117Z,39
2016-04-23T03:44:20.032Z,51
2016-04-23T03:47:32.056Z,62
2016-04-23T03:50:43.892Z,81
2016-04-23T03:54:01.603Z,99
2016-04-23T03:57:08.493Z,117
2016-04-23T04:00:09.250Z,143
2016-04-23T04:03:21.087Z,180
2016-04-23T04:06:33.111Z,232
2016-04-23T04:09:45.119Z,280
2016-04-23T04:13:03.080Z,319
2016-04-23T04:16:03.947Z,366
2016-04-23T04:19:15.692Z,426
2016-04-23T04:22:27.466Z,553
2016-04-23T04:25:39.162Z,667
2016-04-23T04:28:50.935Z,750
2016-04-23T04:32:08.602Z,780
2016-04-23T04:35:09.235Z,759
2016-04-23T04:38:20.790Z,832
2016-04-23T04:41:32.330Z,996
2016-04-23T04:44:43.978Z,1167
2016-04-23T04:48:01.065Z,1255
2016-04-23T04:51:07.966Z,1201
2016-04-23T04:54:08.677Z,1277
2016-04-23T04:57:20.279Z,1512
2016-04-23T05:00:32.240Z,1765
2016-04-23T05:03:43.671Z,1989
2016-04-23T05:06:52.053Z,2254
2016-04-23T05:10:03.811Z,2236
2016-04-23T05:13:15.509Z,2333
2016-04-23T05:16:27.424Z,2299
2016-04-23T05:19:39.386Z,2240
2016-04-23T05:22:50.940Z,2446
2016-04-23T05:26:08.701Z,2737
2016-04-23T05:29:09.568Z,3092
2016-04-23T05:32:21.420Z,2929
2016-04-23T05:35:33.131Z,2849
2016-04-23T05:38:42.170Z,3159
2016-04-23T05:42:00.007Z,3754
2016-04-23T05:45:07.000Z,4554
2016-04-23T05:48:08.042Z,5187
2016-04-23T05:51:20.050Z,4880
2016-04-23T05:54:32.307Z,6554
2016-04-23T05:57:44.752Z,6708
2016-04-23T06:01:02.839Z,7621
2016-04-23T06:04:04.112Z,7351
2016-04-23T06:07:16.218Z,7967
2016-04-23T06:10:28.444Z,5857
2016-04-23T06:13:40.827Z,5834
2016-04-23T06:16:53.164Z,7151
2016-04-23T06:20:05.608Z,8154
2016-04-23T06:23:18.089Z,8472
2016-04-23T06:26:30.768Z,7826
2016-04-23T06:29:43.496Z,6812
2016-04-23T06:33:02.113Z,8954
2016-04-23T06:36:03.995Z,10047
2016-04-23T06:39:16.866Z,8582
2016-04-23T06:42:29.467Z,10811
2016-04-23T06:45:42.195Z,9457
2016-04-23T06:49:01.062Z,9254
2016-04-23T06:52:08.913Z,7304
2016-04-23T06:55:10.534Z,7285
2016-04-23T06:58:23.058Z,8734
2016-04-23T07:01:35.800Z,11082
2016-04-23T07:04:48.449Z,8809
2016-04-23T07:08:07.143Z,9318
2016-04-23T07:11:08.887Z,9559
2016-04-23T07:14:21.648Z,8671
2016-04-23T07:17:34.484Z,10719
2016-04-23T07:20:47.258Z,10403
2016-04-23T07:24:06.156Z,9524
2016-04-23T07:27:07.899Z,10104
2016-04-23T07:30:20.691Z,9778
2016-04-23T07:33:33.386Z,8818
2016-04-23T07:36:46.613Z,5599
2016-04-23T07:40:05.605Z,2527
2016-04-23T07:43:07.861Z,10665
2016-04-23T07:46:20.995Z,11795
2016-04-23T07:49:34.005Z,12355
2016-04-23T07:52:47.434Z,384
2016-04-23T07:56:06.912Z,698
2016-04-23T07:59:09.365Z,9864
2016-04-23T08:02:18.459Z,10708
2016-04-23T08:05:27.689Z,477
2016-04-23T08:08:40.401Z,384
2016-04-23T08:11:53.894Z,14061
2016-04-23T08:15:06.965Z,9415
2016-04-23T08:18:19.711Z,7963
2016-04-23T08:21:32.593Z,7188
2016-04-23T08:24:45.132Z,7908
2016-04-23T08:28:03.782Z,14896
2016-04-23T08:31:05.856Z,11091
2016-04-23T08:34:20.773Z,6888
2016-04-23T08:37:31.187Z,13909
2016-04-23T08:40:43.742Z,7679
2016-04-23T08:44:02.657Z,14557
2016-04-23T08:47:04.711Z,384
2016-04-23T08:50:18.410Z,384
2016-04-23T08:53:31.762Z,9250
2016-04-23T08:56:45.052Z,538
2016-04-23T09:00:00.622Z,384
2016-04-23T09:03:09.115Z,10490
2016-04-23T09:06:11.201Z,15145
2016-04-23T09:09:23.836Z,384
2016-04-23T09:12:33.532Z,384
2016-04-23T09:15:46.775Z,6791
2016-04-23T09:19:05.377Z,12875
2016-04-23T09:22:07.463Z,9913
2016-04-23T09:25:20.239Z,1231
2016-04-23T09:28:33.043Z,9071
2016-04-23T09:31:45.802Z,6025
2016-04-23T09:35:04.545Z,384
2016-04-23T09:38:07.178Z,490
2016-04-23T09:41:20.595Z,384
2016-04-23T09:44:32.337Z,5630
2016-04-23T09:47:45.564Z,384
2016-04-23T09:51:05.509Z,15040
2016-04-23T09:54:08.361Z,13764
2016-04-23T09:57:22.200Z,14488
2016-04-23T10:00:35.115Z,12030
2016-04-23T10:03:48.326Z,10306
2016-04-23T10:07:04.552Z,10568
2016-04-23T10:10:06.701Z,11003
2016-04-23T10:13:19.553Z,12807
2016-04-23T10:16:32.579Z,7703
2016-04-23T10:19:46.369Z,8314
2016-04-23T10:23:04.391Z,9911
2016-04-23T10:26:06.435Z,8591
2016-04-23T10:29:19.427Z,8054
2016-04-23T10:32:31.907Z,8030
2016-04-23T10:35:44.633Z,6991
2016-04-23T10:39:03.235Z,6947
2016-04-23T10:42:05.024Z,7015
2016-04-23T10:45:18.345Z,7456
2016-04-23T10:48:30.950Z,6881
2016-04-23T10:51:43.942Z,6007
2016-04-23T10:55:02.764Z,5583
2016-04-23T10:58:04.724Z,5488
2016-04-23T11:01:17.779Z,5349
2016-04-23T11:04:30.743Z,5306
2016-04-23T11:07:43.719Z,5269
2016-04-23T11:11:02.571Z,5699
2016-04-23T11:14:04.502Z,5695
2016-04-23T11:17:17.415Z,5798
2016-04-23T11:20:31.098Z,5973
2016-04-23T11:23:43.200Z,5718
2016-04-23T11:27:01.880Z,6195
2016-04-23T11:30:09.482Z,5975
2016-04-23T11:33:11.115Z,6128
2016-04-23T11:36:23.702Z,6025
2016-04-23T11:39:36.352Z,6281
2016-04-23T11:42:49.110Z,5619
2016-04-23T11:46:07.885Z,5217
2016-04-23T11:49:09.393Z,5129
2016-04-23T11:52:22.010Z,5312
2016-04-23T11:55:34.442Z,4640
2016-04-23T11:58:46.872Z,5960
2016-04-23T12:02:05.647Z,5327
2016-04-23T12:05:07.357Z,5480
2016-04-23T12:08:20.085Z,4098
2016-04-23T12:11:32.704Z,3849
2016-04-23T12:14:45.024Z,4409
2016-04-23T12:18:03.892Z,4368
2016-04-23T12:21:05.651Z,4688
2016-04-23T12:24:18.189Z,4291
2016-04-23T12:27:30.967Z,5755
2016-04-23T12:30:43.974Z,3562
2016-04-23T12:34:02.795Z,4471
2016-04-23T12:37:05.553Z,4494
2016-04-23T12:40:17.154Z,3592
2016-04-23T12:43:29.821Z,4405
2016-04-23T12:46:45.611Z,5645
2016-04-23T12:49:53.259Z,6194
2016-04-23T12:53:05.846Z,5299
2016-04-23T12:56:18.823Z,6027
2016-04-23T12:59:31.567Z,5002
2016-04-23T13:02:44.325Z,5240
2016-04-23T13:06:02.990Z,5219
2016-04-23T13:09:04.794Z,4862
2016-04-23T13:12:17.364Z,4987
2016-04-23T13:15:30.030Z,3924
2016-04-23T13:18:42.615Z,3474
2016-04-23T13:22:01.349Z,3792
2016-04-23T13:25:08.998Z,3869
2016-04-23T13:28:10.710Z,4514
2016-04-23T13:31:23.405Z,5620
2016-04-23T13:34:38.195Z,4790
2016-04-23T13:37:48.830Z,4907
2016-04-23T13:41:07.854Z,4572
2016-04-23T13:44:09.691Z,4782
2016-04-23T13:47:23.542Z,5329
2016-04-23T13:50:35.332Z,3866
2016-04-23T13:53:48.483Z,4141
2016-04-23T14:00:08.593Z,3831
2016-04-23T14:03:21.398Z,3306
2016-04-23T14:06:34.140Z,3369
2016-04-23T14:09:46.992Z,3483
2016-04-23T14:13:06.112Z,2918
2016-04-23T14:16:07.933Z,2445
2016-04-23T14:19:21.051Z,2335
2016-04-23T14:22:33.839Z,3065
2016-04-23T14:25:46.395Z,3331
2016-04-23T14:29:05.280Z,3248
2016-04-23T14:32:07.116Z,3185
2016-04-23T14:35:20.032Z,3646
2016-04-23T14:38:32.679Z,4696
2016-04-23T14:41:44.876Z,3949
2016-04-23T14:45:03.480Z,4455
2016-04-23T14:48:05.456Z,3912
2016-04-23T14:51:18.371Z,3245
2016-04-23T14:54:31.347Z,2650
2016-04-23T14:57:41.949Z,2659
2016-04-23T15:01:00.867Z,2967
2016-04-23T15:04:08.703Z,3863
2016-04-23T15:07:10.648Z,3668
2016-04-23T15:10:21.609Z,3372
2016-04-23T15:13:34.493Z,2826
2016-04-23T15:16:47.360Z,2744
2016-04-23T15:20:06.715Z,2975
2016-04-23T15:23:08.191Z,3203
2016-04-23T15:26:21.169Z,2787
2016-04-23T15:29:32.725Z,3069
2016-04-23T15:32:45.638Z,3157
2016-04-23T15:36:04.587Z,3848
2016-04-23T15:39:06.486Z,3064
2016-04-23T15:42:19.056Z,2597
2016-04-23T15:45:31.877Z,2044
2016-04-23T15:48:44.338Z,1821
2016-04-23T15:52:02.943Z,1751
2016-04-23T15:55:10.606Z,1684
2016-04-23T15:58:12.443Z,1639
2016-04-23T16:01:25.139Z,1624
2016-04-23T16:04:37.677Z,1750
2016-04-23T16:07:50.216Z,1703
2016-04-23T16:11:08.650Z,1859
2016-04-23T16:14:10.313Z,2108
2016-04-23T16:17:22.994Z,2101
2016-04-23T16:20:35.221Z,1968
2016-04-23T16:23:47.853Z,1843
2016-04-23T16:27:06.426Z,1711
2016-04-23T16:30:08.154Z,1565
2016-04-23T16:33:20.692Z,1769
2016-04-23T16:36:33.358Z,1718
2016-04-23T16:39:43.788Z,1778
2016-04-23T16:43:02.564Z,1928
2016-04-23T16:46:10.432Z,1667
2016-04-23T16:49:12.226Z,1463
2016-04-23T16:52:25.114Z,1327
2016-04-23T16:55:37.839Z,1224
2016-04-23T16:58:50.832Z,1179
2016-04-23T17:02:09.269Z,1174
2016-04-23T17:05:11.439Z,1159
2016-04-23T17:08:23.950Z,1128
2016-04-23T17:11:35.195Z,1125
2016-04-23T17:14:47.954Z,1102
2016-04-23T17:18:06.761Z,1127
2016-04-23T17:21:08.535Z,1120
2016-04-23T17:24:21.057Z,1047
2016-04-23T17:27:33.738Z,896
2016-04-23T17:30:46.120Z,773
2016-04-23T17:34:04.725Z,712
2016-04-23T17:37:07.296Z,663
2016-04-23T17:40:18.929Z,615
2016-04-23T17:43:31.812Z,573
2016-04-23T17:46:44.257Z,524
2016-04-23T17:50:02.984Z,452
2016-04-23T17:53:10.557Z,390
2016-04-23T17:56:12.159Z,352
2016-04-23T17:59:24.949Z,318
2016-04-23T18:02:37.430Z,291
2016-04-23T18:05:49.954Z,261
2016-04-23T18:09:08.636Z,218
2016-04-23T18:12:10.113Z,182
2016-04-23T18:15:22.558Z,147
2016-04-23T18:18:34.676Z,113
2016-04-23T18:21:45.825Z,86
2016-04-23T18:25:04.192Z,60
2016-04-23T18:28:05.732Z,40
2016-04-23T18:31:18.216Z,24
2016-04-23T18:34:30.443Z,15
2016-04-23T18:37:43.857Z,9
2016-04-23T18:40:55.209Z,5
2016-04-23T18:44:05.702Z,4
2016-04-23T18:47:17.806Z,2
2016-04-23T18:50:30.330Z,1
2016-04-23T18:53:42.822Z,1
2016-04-23T18:56:55.330Z,0
2016-04-23T19:00:06.166Z,6
2016-04-23T19:03:18.491Z,5
2016-04-23T19:06:31.904Z,5
2016-04-23T19:09:43.444Z,5
2016-04-23T19:13:01.857Z,5
2016-04-23T19:16:09.259Z,5
2016-04-23T19:19:10.673Z,5
2016-04-23T19:22:23.103Z,5
2016-04-23T19:25:35.455Z,5
2016-04-23T19:28:47.433Z,5
2016-04-23T19:32:04.377Z,5
2016-04-23T19:35:05.871Z,5
2016-04-23T19:38:18.007Z,5
2016-04-23T19:41:30.779Z,5
2016-04-23T19:44:45.257Z,5
2016-04-23T19:48:01.686Z,5
2016-04-23T19:51:09.132Z,5
2016-04-23T19:54:10.499Z,5
2016-04-23T19:57:23.120Z,5
2016-04-23T20:00:35.705Z,5
2016-04-23T20:03:48.120Z,5
2016-04-23T20:07:05.628Z,5
2016-04-23T20:10:07.073Z,5
2016-04-23T20:13:19.397Z,5
2016-04-23T20:16:31.623Z,5
2016-04-23T20:19:44.070Z,5
2016-04-23T20:23:02.313Z,5
2016-04-23T20:26:09.712Z,5
2016-04-23T20:29:10.975Z,5
2016-04-23T20:32:19.486Z,5
2016-04-23T20:35:31.821Z,5
2016-04-23T20:38:44.220Z,5
2016-04-23T20:41:55.088Z,5
2016-04-23T20:45:07.486Z,5
2016-04-23T20:48:19.606Z,5
2016-04-23T20:51:31.802Z,5
2016-04-23T20:54:44.232Z,5
2016-04-23T20:58:02.568Z,5
2016-04-23T21:01:09.935Z,5
2016-04-23T21:04:11.381Z,5
2016-04-23T21:07:23.658Z,5
2016-04-23T21:10:35.744Z,5
2016-04-23T21:13:47.861Z,5
2016-04-23T21:17:07.182Z,5
2016-04-23T21:20:07.487Z,5
2016-04-23T21:23:19.658Z,5
2016-04-23T21:26:31.966Z,5
2016-04-23T21:29:44.239Z,5
2016-04-23T21:33:02.638Z,5
2016-04-23T21:36:09.833Z,5
2016-04-23T21:39:10.999Z,5
2016-04-23T21:42:23.364Z,5
2016-04-23T21:45:37.459Z,5
2016-04-23T21:48:47.915Z,5
2016-04-23T21:52:06.791Z,5
2016-04-23T21:55:07.753Z,5
2016-04-23T21:58:20.175Z,5
2016-04-23T22:01:32.404Z,5
2016-04-23T22:04:41.116Z,5
2016-04-23T22:07:53.436Z,5
2016-04-23T22:11:11.632Z,5
2016-04-23T22:14:14.092Z,5
2016-04-23T22:17:23.117Z,5
2016-04-23T22:20:34.847Z,5
2016-04-23T22:23:46.636Z,5
2016-04-23T22:27:04.769Z,5
2016-04-23T22:30:05.824Z,5
2016-04-23T22:33:17.816Z,5
2016-04-23T22:36:30.077Z,5
2016-04-23T22:39:42.116Z,5
2016-04-23T22:42:54.108Z,5
2016-04-23T22:46:05.929Z,5
2016-04-23T22:49:19.733Z,5
2016-04-23T22:52:29.808Z,5
2016-04-23T22:55:42.003Z,5
2016-04-23T22:58:54.261Z,5
2016-04-23T23:02:06.191Z,5
2016-04-23T23:05:18.074Z,5
2016-04-23T23:08:30.240Z,5
2016-04-23T23:11:42.342Z,5
2016-04-23T23:14:54.456Z,5
2016-04-23T23:18:06.495Z,5
2016-04-23T23:21:18.754Z,5
2016-04-23T23:24:29.640Z,5
2016-04-23T23:27:41.382Z,5
2016-04-23T23:30:53.531Z,5
2016-04-23T23:34:11.898Z,5
2016-04-23T23:37:13.234Z,5
2016-04-23T23:40:24.492Z,5
2016-04-23T23:43:36.660Z,5
2016-04-23T23:46:48.308Z,5
2016-04-23T23:50:05.238Z,5
2016-04-23T23:53:06.121Z,5
2016-04-23T23:56:17.926Z,5
2016-04-23T23:59:29.653Z,5
